sensor_id;sensor_type;location;lat;lon;timestamp;P1;durP1;ratioP1;P2;durP2;ratioP2
1837;SDS011;918;50.796;6.772;2023-10-09T00:01:50;7.60;;;6.90;;
1837;SDS011;918;50.796;6.772;2023-10-09T00:04:16;6.90;;;6.20;;
1837;SDS011;918;50.796;6.772;2023-10-09T00:06:42;7.37;;;6.10;;
1837;SDS011;918;50.796;6.772;2023-10-09T00:09:08;8.23;;;7.17;;
1837;SDS011;918;50.796;6.772;2023-10-09T00:11:50;8.47;;;6.60;;
1837;SDS011;918;50.796;6.772;2023-10-09T00:14:29;7.50;;;6.27;;
1837;SDS011;918;50.796;6.772;2023-10-09T00:16:55;8.17;;;7.37;;
1837;SDS011;918;50.796;6.772;2023-10-09T00:19:41;8.13;;;6.40;;
1837;SDS011;918;50.796;6.772;2023-10-09T00:22:08;6.93;;;6.23;;
1837;SDS011;918;50.796;6.772;2023-10-09T00:24:49;8.00;;;6.60;;
1837;SDS011;918;50.796;6.772;2023-10-09T00:27:15;7.90;;;7.10;;
1837;SDS011;918;50.796;6.772;2023-10-09T00:29:43;10.10;;;6.60;;
1837;SDS011;918;50.796;6.772;2023-10-09T00:32:13;10.50;;;7.27;;
1837;SDS011;918;50.796;6.772;2023-10-09T00:34:44;7.50;;;6.70;;
1837;SDS011;918;50.796;6.772;2023-10-09T00:37:09;10.60;;;6.53;;
1837;SDS011;918;50.796;6.772;2023-10-09T00:39:41;7.70;;;6.73;;
1837;SDS011;918;50.796;6.772;2023-10-09T00:42:08;6.60;;;6.00;;
1837;SDS011;918;50.796;6.772;2023-10-09T00:44:37;7.67;;;6.40;;
1837;SDS011;918;50.796;6.772;2023-10-09T00:47:07;8.23;;;5.77;;
1837;SDS011;918;50.796;6.772;2023-10-09T00:49:52;7.47;;;6.60;;
1837;SDS011;918;50.796;6.772;2023-10-09T00:52:30;9.10;;;7.07;;
1837;SDS011;918;50.796;6.772;2023-10-09T00:54:58;8.20;;;6.70;;
1837;SDS011;918;50.796;6.772;2023-10-09T00:57:29;6.80;;;6.03;;
1837;SDS011;918;50.796;6.772;2023-10-09T00:59:56;8.10;;;6.80;;
1837;SDS011;918;50.796;6.772;2023-10-09T01:02:27;7.93;;;7.03;;
1837;SDS011;918;50.796;6.772;2023-10-09T01:05:03;8.13;;;6.40;;
1837;SDS011;918;50.796;6.772;2023-10-09T01:07:45;7.30;;;6.57;;
1837;SDS011;918;50.796;6.772;2023-10-09T01:10:11;7.50;;;6.70;;
1837;SDS011;918;50.796;6.772;2023-10-09T01:12:36;9.17;;;6.20;;
1837;SDS011;918;50.796;6.772;2023-10-09T01:15:08;7.60;;;6.90;;
1837;SDS011;918;50.796;6.772;2023-10-09T01:17:42;8.20;;;7.40;;
1837;SDS011;918;50.796;6.772;2023-10-09T01:20:10;6.87;;;5.90;;
1837;SDS011;918;50.796;6.772;2023-10-09T01:22:41;6.40;;;5.67;;
1837;SDS011;918;50.796;6.772;2023-10-09T01:25:08;8.63;;;6.43;;
1837;SDS011;918;50.796;6.772;2023-10-09T01:27:34;7.03;;;6.20;;
1837;SDS011;918;50.796;6.772;2023-10-09T01:30:00;7.30;;;6.30;;
1837;SDS011;918;50.796;6.772;2023-10-09T01:32:25;7.90;;;6.57;;
1837;SDS011;918;50.796;6.772;2023-10-09T01:34:51;7.00;;;6.20;;
1837;SDS011;918;50.796;6.772;2023-10-09T01:37:19;7.40;;;6.57;;
1837;SDS011;918;50.796;6.772;2023-10-09T01:39:54;8.00;;;6.83;;
1837;SDS011;918;50.796;6.772;2023-10-09T01:42:25;6.43;;;5.87;;
1837;SDS011;918;50.796;6.772;2023-10-09T01:45:09;7.07;;;5.90;;
1837;SDS011;918;50.796;6.772;2023-10-09T01:47:52;8.47;;;7.23;;
1837;SDS011;918;50.796;6.772;2023-10-09T01:50:19;6.77;;;5.80;;
1837;SDS011;918;50.796;6.772;2023-10-09T01:52:47;7.70;;;6.03;;
1837;SDS011;918;50.796;6.772;2023-10-09T01:55:12;7.00;;;6.10;;
1837;SDS011;918;50.796;6.772;2023-10-09T01:57:53;7.60;;;6.37;;
1837;SDS011;918;50.796;6.772;2023-10-09T02:00:19;6.23;;;5.13;;
1837;SDS011;918;50.796;6.772;2023-10-09T02:02:48;6.67;;;5.97;;
1837;SDS011;918;50.796;6.772;2023-10-09T02:05:15;7.50;;;6.70;;
1837;SDS011;918;50.796;6.772;2023-10-09T02:07:41;7.53;;;6.60;;
1837;SDS011;918;50.796;6.772;2023-10-09T02:10:11;8.03;;;6.50;;
1837;SDS011;918;50.796;6.772;2023-10-09T02:12:58;7.30;;;5.80;;
1837;SDS011;918;50.796;6.772;2023-10-09T02:15:25;7.30;;;6.20;;
1837;SDS011;918;50.796;6.772;2023-10-09T02:18:10;6.97;;;6.00;;
1837;SDS011;918;50.796;6.772;2023-10-09T02:20:52;8.20;;;6.50;;
1837;SDS011;918;50.796;6.772;2023-10-09T02:23:32;7.23;;;6.50;;
1837;SDS011;918;50.796;6.772;2023-10-09T02:26:07;8.77;;;6.97;;
1837;SDS011;918;50.796;6.772;2023-10-09T02:28:34;6.90;;;6.30;;
1837;SDS011;918;50.796;6.772;2023-10-09T02:31:00;6.70;;;5.60;;
1837;SDS011;918;50.796;6.772;2023-10-09T02:33:27;10.17;;;7.27;;
1837;SDS011;918;50.796;6.772;2023-10-09T02:35:53;7.07;;;6.20;;
1837;SDS011;918;50.796;6.772;2023-10-09T02:38:20;7.10;;;5.97;;
1837;SDS011;918;50.796;6.772;2023-10-09T02:40:49;10.40;;;6.23;;
1837;SDS011;918;50.796;6.772;2023-10-09T02:43:28;6.60;;;5.57;;
1837;SDS011;918;50.796;6.772;2023-10-09T02:45:59;8.83;;;5.60;;
1837;SDS011;918;50.796;6.772;2023-10-09T02:48:25;6.20;;;5.60;;
1837;SDS011;918;50.796;6.772;2023-10-09T02:50:51;8.30;;;6.87;;
1837;SDS011;918;50.796;6.772;2023-10-09T02:53:17;6.03;;;5.17;;
1837;SDS011;918;50.796;6.772;2023-10-09T02:55:45;5.27;;;4.83;;
1837;SDS011;918;50.796;6.772;2023-10-09T02:58:33;6.53;;;5.83;;
1837;SDS011;918;50.796;6.772;2023-10-09T03:01:01;7.10;;;6.40;;
1837;SDS011;918;50.796;6.772;2023-10-09T03:03:27;7.57;;;6.33;;
1837;SDS011;918;50.796;6.772;2023-10-09T03:05:53;5.70;;;5.10;;
1837;SDS011;918;50.796;6.772;2023-10-09T03:08:18;6.90;;;5.70;;
1837;SDS011;918;50.796;6.772;2023-10-09T03:10:44;8.40;;;6.60;;
1837;SDS011;918;50.796;6.772;2023-10-09T03:13:09;7.20;;;6.50;;
1837;SDS011;918;50.796;6.772;2023-10-09T03:15:35;6.40;;;5.80;;
1837;SDS011;918;50.796;6.772;2023-10-09T03:18:04;6.93;;;6.23;;
1837;SDS011;918;50.796;6.772;2023-10-09T03:20:30;6.30;;;5.70;;
1837;SDS011;918;50.796;6.772;2023-10-09T03:22:59;8.67;;;6.70;;
1837;SDS011;918;50.796;6.772;2023-10-09T03:25:26;7.07;;;6.37;;
1837;SDS011;918;50.796;6.772;2023-10-09T03:27:53;8.20;;;6.77;;
1837;SDS011;918;50.796;6.772;2023-10-09T03:30:21;6.33;;;5.40;;
1837;SDS011;918;50.796;6.772;2023-10-09T03:32:52;6.90;;;6.20;;
1837;SDS011;918;50.796;6.772;2023-10-09T03:35:21;8.23;;;5.90;;
1837;SDS011;918;50.796;6.772;2023-10-09T03:37:56;7.33;;;5.30;;
1837;SDS011;918;50.796;6.772;2023-10-09T03:40:25;7.50;;;6.30;;
1837;SDS011;918;50.796;6.772;2023-10-09T03:42:51;7.20;;;6.50;;
1837;SDS011;918;50.796;6.772;2023-10-09T03:45:16;7.40;;;5.67;;
1837;SDS011;918;50.796;6.772;2023-10-09T03:47:53;7.70;;;6.40;;
1837;SDS011;918;50.796;6.772;2023-10-09T03:50:41;7.47;;;6.50;;
1837;SDS011;918;50.796;6.772;2023-10-09T03:53:08;7.60;;;6.73;;
1837;SDS011;918;50.796;6.772;2023-10-09T03:55:36;9.87;;;7.40;;
1837;SDS011;918;50.796;6.772;2023-10-09T03:58:05;7.90;;;7.10;;
1837;SDS011;918;50.796;6.772;2023-10-09T04:00:31;7.73;;;7.03;;
1837;SDS011;918;50.796;6.772;2023-10-09T04:02:59;6.43;;;5.87;;
1837;SDS011;918;50.796;6.772;2023-10-09T04:05:25;10.00;;;7.20;;
1837;SDS011;918;50.796;6.772;2023-10-09T04:07:50;10.20;;;7.03;;
1837;SDS011;918;50.796;6.772;2023-10-09T04:10:18;7.10;;;6.40;;
1837;SDS011;918;50.796;6.772;2023-10-09T04:13:03;7.77;;;7.00;;
1837;SDS011;918;50.796;6.772;2023-10-09T04:15:28;7.40;;;6.70;;
1837;SDS011;918;50.796;6.772;2023-10-09T04:17:56;7.20;;;6.50;;
1837;SDS011;918;50.796;6.772;2023-10-09T04:20:21;6.80;;;6.20;;
1837;SDS011;918;50.796;6.772;2023-10-09T04:22:47;8.03;;;6.63;;
1837;SDS011;918;50.796;6.772;2023-10-09T04:25:21;7.20;;;6.50;;
1837;SDS011;918;50.796;6.772;2023-10-09T04:28:06;7.53;;;6.80;;
1837;SDS011;918;50.796;6.772;2023-10-09T04:30:37;7.17;;;6.47;;
1837;SDS011;918;50.796;6.772;2023-10-09T04:33:05;6.87;;;6.23;;
1837;SDS011;918;50.796;6.772;2023-10-09T04:35:36;7.40;;;6.73;;
1837;SDS011;918;50.796;6.772;2023-10-09T04:38:02;6.07;;;5.50;;
1837;SDS011;918;50.796;6.772;2023-10-09T04:40:31;6.40;;;5.80;;
1837;SDS011;918;50.796;6.772;2023-10-09T04:43:16;8.30;;;7.50;;
1837;SDS011;918;50.796;6.772;2023-10-09T04:45:47;10.20;;;8.00;;
1837;SDS011;918;50.796;6.772;2023-10-09T04:48:34;7.03;;;6.33;;
1837;SDS011;918;50.796;6.772;2023-10-09T04:51:03;9.87;;;6.53;;
1837;SDS011;918;50.796;6.772;2023-10-09T04:54:01;7.17;;;6.47;;
1837;SDS011;918;50.796;6.772;2023-10-09T04:56:39;7.70;;;6.90;;
1837;SDS011;918;50.796;6.772;2023-10-09T04:59:17;7.73;;;6.30;;
1837;SDS011;918;50.796;6.772;2023-10-09T05:01:43;10.20;;;7.37;;
1837;SDS011;918;50.796;6.772;2023-10-09T05:04:11;7.27;;;6.57;;
1837;SDS011;918;50.796;6.772;2023-10-09T05:07:05;7.40;;;6.63;;
1837;SDS011;918;50.796;6.772;2023-10-09T05:10:01;7.53;;;6.70;;
1837;SDS011;918;50.796;6.772;2023-10-09T05:12:44;8.30;;;7.37;;
1837;SDS011;918;50.796;6.772;2023-10-09T05:15:21;9.40;;;7.00;;
1837;SDS011;918;50.796;6.772;2023-10-09T05:17:54;7.87;;;7.10;;
1837;SDS011;918;50.796;6.772;2023-10-09T05:20:22;8.03;;;7.23;;
1837;SDS011;918;50.796;6.772;2023-10-09T05:22:53;8.13;;;6.57;;
1837;SDS011;918;50.796;6.772;2023-10-09T05:25:44;11.43;;;7.63;;
1837;SDS011;918;50.796;6.772;2023-10-09T05:28:19;7.97;;;7.27;;
1837;SDS011;918;50.796;6.772;2023-10-09T05:30:59;8.50;;;7.30;;
1837;SDS011;918;50.796;6.772;2023-10-09T05:33:32;7.80;;;6.70;;
1837;SDS011;918;50.796;6.772;2023-10-09T05:35:59;8.67;;;6.60;;
1837;SDS011;918;50.796;6.772;2023-10-09T05:38:44;7.43;;;6.73;;
1837;SDS011;918;50.796;6.772;2023-10-09T05:41:12;6.83;;;6.13;;
1837;SDS011;918;50.796;6.772;2023-10-09T05:43:56;5.97;;;5.47;;
1837;SDS011;918;50.796;6.772;2023-10-09T05:46:40;8.73;;;5.77;;
1837;SDS011;918;50.796;6.772;2023-10-09T05:49:25;6.63;;;6.10;;
1837;SDS011;918;50.796;6.772;2023-10-09T05:52:10;6.80;;;6.20;;
1837;SDS011;918;50.796;6.772;2023-10-09T05:54:54;7.10;;;6.40;;
1837;SDS011;918;50.796;6.772;2023-10-09T05:57:39;5.90;;;5.37;;
1837;SDS011;918;50.796;6.772;2023-10-09T06:00:25;7.20;;;6.50;;
1837;SDS011;918;50.796;6.772;2023-10-09T06:03:09;7.43;;;6.73;;
1837;SDS011;918;50.796;6.772;2023-10-09T06:05:47;6.57;;;6.00;;
1837;SDS011;918;50.796;6.772;2023-10-09T06:08:23;6.43;;;5.57;;
1837;SDS011;918;50.796;6.772;2023-10-09T06:10:54;6.30;;;5.60;;
1837;SDS011;918;50.796;6.772;2023-10-09T06:13:40;5.97;;;5.33;;
1837;SDS011;918;50.796;6.772;2023-10-09T06:16:11;7.00;;;5.80;;
1837;SDS011;918;50.796;6.772;2023-10-09T06:19:06;7.07;;;6.13;;
1837;SDS011;918;50.796;6.772;2023-10-09T06:21:40;6.47;;;5.63;;
1837;SDS011;918;50.796;6.772;2023-10-09T06:24:26;6.63;;;5.43;;
1837;SDS011;918;50.796;6.772;2023-10-09T06:26:58;7.27;;;6.57;;
1837;SDS011;918;50.796;6.772;2023-10-09T06:29:27;7.53;;;5.60;;
1837;SDS011;918;50.796;6.772;2023-10-09T06:32:03;7.10;;;5.93;;
1837;SDS011;918;50.796;6.772;2023-10-09T06:34:50;5.97;;;5.37;;
1837;SDS011;918;50.796;6.772;2023-10-09T06:37:20;8.73;;;6.10;;
1837;SDS011;918;50.796;6.772;2023-10-09T06:39:48;5.80;;;5.30;;
1837;SDS011;918;50.796;6.772;2023-10-09T06:42:20;6.53;;;5.90;;
1837;SDS011;918;50.796;6.772;2023-10-09T06:45:01;9.20;;;6.10;;
1837;SDS011;918;50.796;6.772;2023-10-09T06:47:51;6.30;;;5.70;;
1837;SDS011;918;50.796;6.772;2023-10-09T06:50:42;6.77;;;6.07;;
1837;SDS011;918;50.796;6.772;2023-10-09T06:53:21;6.73;;;5.80;;
1837;SDS011;918;50.796;6.772;2023-10-09T06:55:53;6.20;;;5.60;;
1837;SDS011;918;50.796;6.772;2023-10-09T06:58:30;7.50;;;6.17;;
1837;SDS011;918;50.796;6.772;2023-10-09T07:01:06;6.90;;;6.30;;
1837;SDS011;918;50.796;6.772;2023-10-09T07:03:51;7.57;;;6.37;;
1837;SDS011;918;50.796;6.772;2023-10-09T07:06:19;6.70;;;6.10;;
1837;SDS011;918;50.796;6.772;2023-10-09T07:08:51;8.40;;;6.67;;
1837;SDS011;918;50.796;6.772;2023-10-09T07:11:31;7.67;;;7.03;;
1837;SDS011;918;50.796;6.772;2023-10-09T07:14:06;8.40;;;6.90;;
1837;SDS011;918;50.796;6.772;2023-10-09T07:16:32;6.63;;;6.03;;
1837;SDS011;918;50.796;6.772;2023-10-09T07:19:06;7.13;;;5.60;;
1837;SDS011;918;50.796;6.772;2023-10-09T07:21:34;7.23;;;6.53;;
1837;SDS011;918;50.796;6.772;2023-10-09T07:24:04;7.20;;;6.50;;
1837;SDS011;918;50.796;6.772;2023-10-09T07:26:39;8.10;;;6.17;;
1837;SDS011;918;50.796;6.772;2023-10-09T07:29:12;7.80;;;6.63;;
1837;SDS011;918;50.796;6.772;2023-10-09T07:31:41;7.97;;;5.40;;
1837;SDS011;918;50.796;6.772;2023-10-09T07:34:12;6.53;;;5.80;;
1837;SDS011;918;50.796;6.772;2023-10-09T07:36:56;11.20;;;7.30;;
1837;SDS011;918;50.796;6.772;2023-10-09T07:39:21;8.67;;;5.83;;
1837;SDS011;918;50.796;6.772;2023-10-09T07:41:47;6.90;;;6.20;;
1837;SDS011;918;50.796;6.772;2023-10-09T07:44:26;6.90;;;6.10;;
1837;SDS011;918;50.796;6.772;2023-10-09T07:47:05;10.17;;;6.57;;
1837;SDS011;918;50.796;6.772;2023-10-09T07:49:42;5.60;;;5.10;;
1837;SDS011;918;50.796;6.772;2023-10-09T07:52:14;7.00;;;5.40;;
1837;SDS011;918;50.796;6.772;2023-10-09T07:54:40;8.30;;;6.17;;
1837;SDS011;918;50.796;6.772;2023-10-09T07:57:14;7.27;;;6.57;;
1837;SDS011;918;50.796;6.772;2023-10-09T07:59:50;13.73;;;7.00;;
1837;SDS011;918;50.796;6.772;2023-10-09T08:02:26;8.17;;;6.30;;
1837;SDS011;918;50.796;6.772;2023-10-09T08:05:00;9.07;;;6.40;;
1837;SDS011;918;50.796;6.772;2023-10-09T08:07:31;7.80;;;5.73;;
1837;SDS011;918;50.796;6.772;2023-10-09T08:10:04;7.00;;;5.93;;
1837;SDS011;918;50.796;6.772;2023-10-09T08:12:39;6.23;;;5.63;;
1837;SDS011;918;50.796;6.772;2023-10-09T08:15:14;8.00;;;6.53;;
1837;SDS011;918;50.796;6.772;2023-10-09T08:17:51;7.40;;;5.70;;
1837;SDS011;918;50.796;6.772;2023-10-09T08:20:24;6.10;;;5.60;;
1837;SDS011;918;50.796;6.772;2023-10-09T08:22:51;5.20;;;4.70;;
1837;SDS011;918;50.796;6.772;2023-10-09T08:25:20;7.53;;;5.93;;
1837;SDS011;918;50.796;6.772;2023-10-09T08:27:53;7.87;;;6.03;;
1837;SDS011;918;50.796;6.772;2023-10-09T08:31:00;5.90;;;4.80;;
1837;SDS011;918;50.796;6.772;2023-10-09T08:33:29;8.47;;;6.27;;
1837;SDS011;918;50.796;6.772;2023-10-09T08:36:09;5.83;;;5.33;;
1837;SDS011;918;50.796;6.772;2023-10-09T08:38:39;7.67;;;6.57;;
1837;SDS011;918;50.796;6.772;2023-10-09T08:41:11;8.20;;;5.73;;
1837;SDS011;918;50.796;6.772;2023-10-09T08:43:47;7.93;;;6.17;;
1837;SDS011;918;50.796;6.772;2023-10-09T08:46:15;9.03;;;6.80;;
1837;SDS011;918;50.796;6.772;2023-10-09T08:48:44;8.57;;;6.10;;
1837;SDS011;918;50.796;6.772;2023-10-09T08:51:09;6.77;;;5.70;;
1837;SDS011;918;50.796;6.772;2023-10-09T08:53:35;9.10;;;6.10;;
1837;SDS011;918;50.796;6.772;2023-10-09T08:56:00;8.03;;;6.60;;
1837;SDS011;918;50.796;6.772;2023-10-09T08:58:28;6.80;;;6.10;;
1837;SDS011;918;50.796;6.772;2023-10-09T09:00:57;10.03;;;6.90;;
1837;SDS011;918;50.796;6.772;2023-10-09T09:03:23;11.03;;;7.87;;
1837;SDS011;918;50.796;6.772;2023-10-09T09:05:59;8.83;;;6.50;;
1837;SDS011;918;50.796;6.772;2023-10-09T09:08:26;8.63;;;5.67;;
1837;SDS011;918;50.796;6.772;2023-10-09T09:11:00;8.07;;;6.83;;
1837;SDS011;918;50.796;6.772;2023-10-09T09:13:59;6.13;;;5.53;;
1837;SDS011;918;50.796;6.772;2023-10-09T09:16:30;7.23;;;6.53;;
1837;SDS011;918;50.796;6.772;2023-10-09T09:18:56;9.80;;;8.80;;
1837;SDS011;918;50.796;6.772;2023-10-09T09:21:28;5.83;;;5.30;;
1837;SDS011;918;50.796;6.772;2023-10-09T09:23:59;6.50;;;5.90;;
1837;SDS011;918;50.796;6.772;2023-10-09T09:26:39;7.63;;;6.07;;
1837;SDS011;918;50.796;6.772;2023-10-09T09:29:11;6.53;;;5.93;;
1837;SDS011;918;50.796;6.772;2023-10-09T09:31:37;8.83;;;6.10;;
1837;SDS011;918;50.796;6.772;2023-10-09T09:34:06;10.53;;;6.27;;
1837;SDS011;918;50.796;6.772;2023-10-09T09:36:51;7.20;;;6.03;;
1837;SDS011;918;50.796;6.772;2023-10-09T09:39:19;6.20;;;5.57;;
1837;SDS011;918;50.796;6.772;2023-10-09T09:41:51;6.50;;;5.83;;
1837;SDS011;918;50.796;6.772;2023-10-09T09:44:18;5.73;;;5.07;;
1837;SDS011;918;50.796;6.772;2023-10-09T09:46:46;7.27;;;5.50;;
1837;SDS011;918;50.796;6.772;2023-10-09T09:49:12;9.13;;;6.23;;
1837;SDS011;918;50.796;6.772;2023-10-09T09:51:41;5.60;;;4.87;;
1837;SDS011;918;50.796;6.772;2023-10-09T09:54:11;6.33;;;5.73;;
1837;SDS011;918;50.796;6.772;2023-10-09T09:56:46;6.87;;;5.80;;
1837;SDS011;918;50.796;6.772;2023-10-09T09:59:17;5.40;;;4.80;;
1837;SDS011;918;50.796;6.772;2023-10-09T10:01:47;6.33;;;4.80;;
1837;SDS011;918;50.796;6.772;2023-10-09T10:04:22;6.70;;;5.60;;
1837;SDS011;918;50.796;6.772;2023-10-09T10:06:49;7.03;;;5.37;;
1837;SDS011;918;50.796;6.772;2023-10-09T10:09:34;8.43;;;5.10;;
1837;SDS011;918;50.796;6.772;2023-10-09T10:12:03;7.87;;;5.60;;
1837;SDS011;918;50.796;6.772;2023-10-09T10:14:51;9.40;;;7.93;;
1837;SDS011;918;50.796;6.772;2023-10-09T10:17:17;8.87;;;5.73;;
1837;SDS011;918;50.796;6.772;2023-10-09T10:22:45;6.07;;;5.37;;
1837;SDS011;918;50.796;6.772;2023-10-09T10:28:15;5.13;;;4.30;;
1837;SDS011;918;50.796;6.772;2023-10-09T10:31:02;5.00;;;4.33;;
1837;SDS011;918;50.796;6.772;2023-10-09T10:33:44;6.70;;;4.40;;
1837;SDS011;918;50.796;6.772;2023-10-09T10:36:19;4.57;;;4.07;;
1837;SDS011;918;50.796;6.772;2023-10-09T10:38:47;7.20;;;4.90;;
1837;SDS011;918;50.796;6.772;2023-10-09T10:41:29;5.10;;;4.50;;
1837;SDS011;918;50.796;6.772;2023-10-09T10:44:00;5.43;;;4.87;;
1837;SDS011;918;50.796;6.772;2023-10-09T10:46:46;6.60;;;5.60;;
1837;SDS011;918;50.796;6.772;2023-10-09T10:49:16;5.57;;;5.03;;
1837;SDS011;918;50.796;6.772;2023-10-09T10:51:46;5.47;;;4.77;;
1837;SDS011;918;50.796;6.772;2023-10-09T10:54:24;5.17;;;4.13;;
1837;SDS011;918;50.796;6.772;2023-10-09T10:57:01;4.70;;;4.30;;
1837;SDS011;918;50.796;6.772;2023-10-09T10:59:31;4.73;;;4.33;;
1837;SDS011;918;50.796;6.772;2023-10-09T11:02:01;6.00;;;5.30;;
1837;SDS011;918;50.796;6.772;2023-10-09T11:04:27;5.10;;;4.60;;
1837;SDS011;918;50.796;6.772;2023-10-09T11:07:04;5.50;;;5.00;;
1837;SDS011;918;50.796;6.772;2023-10-09T11:09:55;5.73;;;4.33;;
1837;SDS011;918;50.796;6.772;2023-10-09T11:15:07;5.10;;;4.10;;
1837;SDS011;918;50.796;6.772;2023-10-09T11:18:00;3.90;;;3.50;;
1837;SDS011;918;50.796;6.772;2023-10-09T11:20:33;4.27;;;3.73;;
1837;SDS011;918;50.796;6.772;2023-10-09T11:22:59;3.87;;;3.57;;
1837;SDS011;918;50.796;6.772;2023-10-09T11:25:41;4.53;;;4.10;;
1837;SDS011;918;50.796;6.772;2023-10-09T11:28:20;4.57;;;4.17;;
1837;SDS011;918;50.796;6.772;2023-10-09T11:31:11;4.40;;;4.00;;
1837;SDS011;918;50.796;6.772;2023-10-09T11:33:46;4.33;;;3.60;;
1837;SDS011;918;50.796;6.772;2023-10-09T11:36:16;4.70;;;3.20;;
1837;SDS011;918;50.796;6.772;2023-10-09T11:38:46;4.90;;;4.27;;
1837;SDS011;918;50.796;6.772;2023-10-09T11:41:14;7.97;;;4.33;;
1837;SDS011;918;50.796;6.772;2023-10-09T11:43:50;4.40;;;4.00;;
1837;SDS011;918;50.796;6.772;2023-10-09T11:46:16;4.37;;;3.90;;
1837;SDS011;918;50.796;6.772;2023-10-09T11:49:03;5.37;;;4.13;;
1837;SDS011;918;50.796;6.772;2023-10-09T11:51:44;4.80;;;4.07;;
1837;SDS011;918;50.796;6.772;2023-10-09T11:54:30;5.10;;;4.40;;
1837;SDS011;918;50.796;6.772;2023-10-09T11:56:56;3.90;;;3.23;;
1837;SDS011;918;50.796;6.772;2023-10-09T11:59:22;4.53;;;3.83;;
1837;SDS011;918;50.796;6.772;2023-10-09T12:01:48;4.60;;;3.60;;
1837;SDS011;918;50.796;6.772;2023-10-09T12:04:18;4.77;;;4.27;;
1837;SDS011;918;50.796;6.772;2023-10-09T12:06:44;4.30;;;3.90;;
1837;SDS011;918;50.796;6.772;2023-10-09T12:09:09;5.67;;;4.30;;
1837;SDS011;918;50.796;6.772;2023-10-09T12:11:48;4.57;;;4.10;;
1837;SDS011;918;50.796;6.772;2023-10-09T12:14:17;6.90;;;4.30;;
1837;SDS011;918;50.796;6.772;2023-10-09T12:16:48;5.20;;;4.20;;
1837;SDS011;918;50.796;6.772;2023-10-09T12:19:14;4.87;;;4.10;;
1837;SDS011;918;50.796;6.772;2023-10-09T12:21:40;4.50;;;4.03;;
1837;SDS011;918;50.796;6.772;2023-10-09T12:24:08;5.40;;;3.70;;
1837;SDS011;918;50.796;6.772;2023-10-09T12:26:36;4.83;;;3.87;;
1837;SDS011;918;50.796;6.772;2023-10-09T12:29:04;7.07;;;4.03;;
1837;SDS011;918;50.796;6.772;2023-10-09T12:31:35;11.40;;;4.10;;
1837;SDS011;918;50.796;6.772;2023-10-09T12:34:01;5.10;;;4.20;;
1837;SDS011;918;50.796;6.772;2023-10-09T12:36:26;5.70;;;4.67;;
1837;SDS011;918;50.796;6.772;2023-10-09T12:38:52;5.20;;;4.13;;
1837;SDS011;918;50.796;6.772;2023-10-09T12:41:18;5.00;;;4.17;;
1837;SDS011;918;50.796;6.772;2023-10-09T12:43:44;7.83;;;4.70;;
1837;SDS011;918;50.796;6.772;2023-10-09T12:46:10;5.30;;;4.00;;
1837;SDS011;918;50.796;6.772;2023-10-09T12:48:35;4.43;;;4.03;;
1837;SDS011;918;50.796;6.772;2023-10-09T12:51:03;5.73;;;4.53;;
1837;SDS011;918;50.796;6.772;2023-10-09T12:53:32;8.00;;;5.43;;
1837;SDS011;918;50.796;6.772;2023-10-09T12:55:58;5.97;;;4.80;;
1837;SDS011;918;50.796;6.772;2023-10-09T12:58:23;5.13;;;4.47;;
1837;SDS011;918;50.796;6.772;2023-10-09T13:00:51;8.93;;;5.23;;
1837;SDS011;918;50.796;6.772;2023-10-09T13:03:17;5.63;;;4.50;;
1837;SDS011;918;50.796;6.772;2023-10-09T13:05:46;8.33;;;4.90;;
1837;SDS011;918;50.796;6.772;2023-10-09T13:08:26;4.70;;;4.00;;
1837;SDS011;918;50.796;6.772;2023-10-09T13:11:02;5.43;;;4.17;;
1837;SDS011;918;50.796;6.772;2023-10-09T13:13:35;5.30;;;4.37;;
1837;SDS011;918;50.796;6.772;2023-10-09T13:16:16;6.17;;;4.00;;
1837;SDS011;918;50.796;6.772;2023-10-09T13:18:57;4.83;;;4.33;;
1837;SDS011;918;50.796;6.772;2023-10-09T13:21:27;6.27;;;4.73;;
1837;SDS011;918;50.796;6.772;2023-10-09T13:23:57;8.73;;;3.90;;
1837;SDS011;918;50.796;6.772;2023-10-09T13:26:23;5.80;;;3.80;;
1837;SDS011;918;50.796;6.772;2023-10-09T13:29:01;4.90;;;4.10;;
1837;SDS011;918;50.796;6.772;2023-10-09T13:31:27;4.37;;;3.97;;
1837;SDS011;918;50.796;6.772;2023-10-09T13:33:57;4.93;;;4.43;;
1837;SDS011;918;50.796;6.772;2023-10-09T13:36:24;6.40;;;4.10;;
1837;SDS011;918;50.796;6.772;2023-10-09T13:39:06;4.47;;;3.83;;
1837;SDS011;918;50.796;6.772;2023-10-09T13:41:50;6.80;;;4.80;;
1837;SDS011;918;50.796;6.772;2023-10-09T13:44:29;4.47;;;4.07;;
1837;SDS011;918;50.796;6.772;2023-10-09T13:46:59;7.70;;;4.53;;
1837;SDS011;918;50.796;6.772;2023-10-09T13:49:26;5.93;;;3.93;;
1837;SDS011;918;50.796;6.772;2023-10-09T13:51:58;7.57;;;4.27;;
1837;SDS011;918;50.796;6.772;2023-10-09T13:54:25;6.07;;;4.40;;
1837;SDS011;918;50.796;6.772;2023-10-09T13:57:04;4.70;;;4.30;;
1837;SDS011;918;50.796;6.772;2023-10-09T13:59:30;6.10;;;4.33;;
1837;SDS011;918;50.796;6.772;2023-10-09T14:01:56;4.50;;;4.00;;
1837;SDS011;918;50.796;6.772;2023-10-09T14:04:24;4.40;;;3.90;;
1837;SDS011;918;50.796;6.772;2023-10-09T14:06:50;6.40;;;4.90;;
1837;SDS011;918;50.796;6.772;2023-10-09T14:09:26;6.40;;;4.80;;
1837;SDS011;918;50.796;6.772;2023-10-09T14:12:10;6.13;;;3.93;;
1837;SDS011;918;50.796;6.772;2023-10-09T14:14:37;10.47;;;5.60;;
1837;SDS011;918;50.796;6.772;2023-10-09T14:17:06;4.37;;;3.97;;
1837;SDS011;918;50.796;6.772;2023-10-09T14:19:41;4.30;;;3.70;;
1837;SDS011;918;50.796;6.772;2023-10-09T14:22:12;8.90;;;6.03;;
1837;SDS011;918;50.796;6.772;2023-10-09T14:24:40;6.60;;;4.10;;
1837;SDS011;918;50.796;6.772;2023-10-09T14:27:09;5.97;;;4.47;;
1837;SDS011;918;50.796;6.772;2023-10-09T14:29:40;5.90;;;4.20;;
1837;SDS011;918;50.796;6.772;2023-10-09T14:32:07;5.53;;;4.50;;
1837;SDS011;918;50.796;6.772;2023-10-09T14:34:38;5.47;;;4.90;;
1837;SDS011;918;50.796;6.772;2023-10-09T14:37:07;5.60;;;4.43;;
1837;SDS011;918;50.796;6.772;2023-10-09T14:39:36;4.63;;;4.23;;
1837;SDS011;918;50.796;6.772;2023-10-09T14:42:02;6.80;;;4.40;;
1837;SDS011;918;50.796;6.772;2023-10-09T14:44:35;5.30;;;4.13;;
1837;SDS011;918;50.796;6.772;2023-10-09T14:47:03;5.20;;;3.97;;
1837;SDS011;918;50.796;6.772;2023-10-09T14:49:32;7.63;;;4.37;;
1837;SDS011;918;50.796;6.772;2023-10-09T14:52:02;5.97;;;4.80;;
1837;SDS011;918;50.796;6.772;2023-10-09T14:54:28;5.27;;;4.73;;
1837;SDS011;918;50.796;6.772;2023-10-09T14:56:53;5.80;;;4.93;;
1837;SDS011;918;50.796;6.772;2023-10-09T14:59:19;4.87;;;4.30;;
1837;SDS011;918;50.796;6.772;2023-10-09T15:01:47;4.93;;;4.27;;
1837;SDS011;918;50.796;6.772;2023-10-09T15:04:14;6.50;;;4.53;;
1837;SDS011;918;50.796;6.772;2023-10-09T15:06:40;4.97;;;4.07;;
1837;SDS011;918;50.796;6.772;2023-10-09T15:09:05;6.93;;;4.60;;
1837;SDS011;918;50.796;6.772;2023-10-09T15:11:34;5.67;;;4.80;;
1837;SDS011;918;50.796;6.772;2023-10-09T15:14:02;7.17;;;5.00;;
1837;SDS011;918;50.796;6.772;2023-10-09T15:16:29;5.43;;;4.00;;
1837;SDS011;918;50.796;6.772;2023-10-09T15:18:56;5.30;;;4.70;;
1837;SDS011;918;50.796;6.772;2023-10-09T15:21:27;5.50;;;4.50;;
1837;SDS011;918;50.796;6.772;2023-10-09T15:23:54;6.57;;;4.97;;
1837;SDS011;918;50.796;6.772;2023-10-09T15:26:23;7.20;;;5.37;;
1837;SDS011;918;50.796;6.772;2023-10-09T15:28:49;6.27;;;5.10;;
1837;SDS011;918;50.796;6.772;2023-10-09T15:31:18;5.97;;;4.83;;
1837;SDS011;918;50.796;6.772;2023-10-09T15:33:44;5.57;;;4.40;;
1837;SDS011;918;50.796;6.772;2023-10-09T15:36:12;5.63;;;4.57;;
1837;SDS011;918;50.796;6.772;2023-10-09T15:38:38;6.03;;;5.07;;
1837;SDS011;918;50.796;6.772;2023-10-09T15:41:04;6.97;;;5.10;;
1837;SDS011;918;50.796;6.772;2023-10-09T15:43:31;5.73;;;4.90;;
1837;SDS011;918;50.796;6.772;2023-10-09T15:45:58;6.23;;;5.13;;
1837;SDS011;918;50.796;6.772;2023-10-09T15:48:23;8.57;;;5.33;;
1837;SDS011;918;50.796;6.772;2023-10-09T15:50:49;6.20;;;5.60;;
1837;SDS011;918;50.796;6.772;2023-10-09T15:53:16;5.93;;;5.00;;
1837;SDS011;918;50.796;6.772;2023-10-09T15:55:43;6.30;;;5.07;;
1837;SDS011;918;50.796;6.772;2023-10-09T15:58:09;5.33;;;4.83;;
1837;SDS011;918;50.796;6.772;2023-10-09T16:00:34;5.70;;;4.60;;
1837;SDS011;918;50.796;6.772;2023-10-09T16:02:59;5.97;;;5.33;;
1837;SDS011;918;50.796;6.772;2023-10-09T16:05:25;5.77;;;5.17;;
1837;SDS011;918;50.796;6.772;2023-10-09T16:07:52;5.83;;;5.20;;
1837;SDS011;918;50.796;6.772;2023-10-09T16:10:21;4.70;;;4.30;;